Time;durP1;ratioP1;P1;durP2;ratioP2;P2;SDS_P1;SDS_P2;PMS_P1;PMS_P2;Temp;Humidity;BMP_temperature;BMP_pressure;BME280_temperature;BME280_humidity;BME280_pressure;Samples;Min_cycle;Max_cycle;Signal;HPM_P1;HPM_P2
2021/07/02 00:02:19;;;;;;;;;;;;;;;25.85;56.46;100013.60;1715427;83;20155;-62
2021/07/02 00:04:45;;;;;;;;;;;;;;;25.86;56.52;100006.86;1701750;82;20188;-61
2021/07/02 00:07:10;;;;;;;;;;;;;;;25.87;56.57;100002.31;1714809;83;21031;-62
2021/07/02 00:09:36;;;;;;;;;;;;;;;25.87;56.61;99988.97;1708293;82;20187;-61
2021/07/02 00:12:03;;;;;;;;;;;;;;;25.88;56.66;99979.44;1730468;81;20204;-62
2021/07/02 00:14:29;;;;;;;;;;;;;;;25.87;56.70;99981.42;1745248;81;20500;-62
2021/07/02 00:16:55;;;;;;;;;;;;;;;25.89;56.76;99972.66;1769697;80;20185;-61
2021/07/02 00:19:23;;;;;;;;;;;;;;;25.88;56.80;99967.70;1757286;80;21007;-61
2021/07/02 00:21:48;;;;;;;;;;;;;;;25.89;56.84;99955.94;1758765;80;20269;-61
2021/07/02 00:24:14;;;;;;;;;;;;;;;25.89;56.89;99960.93;1761761;80;20176;-62
2021/07/02 00:26:40;;;;;;;;;;;;;;;25.89;56.92;99955.94;1763026;80;20215;-62
2021/07/02 00:29:06;;;;;;;;;;;;;;;25.91;56.98;99949.42;1766244;80;20432;-62
2021/07/02 00:31:32;;;;;;;;;;;;;;;25.91;57.01;99953.02;1767754;80;20726;-61
2021/07/02 00:33:57;;;;;;;;;;;;;;;25.91;57.07;99950.81;1764137;80;20189;-62
2021/07/02 00:36:23;;;;;;;;;;;;;;;25.93;57.11;99947.66;1759051;79;20193;-62
2021/07/02 00:38:49;;;;;;;;;;;;;;;25.95;57.13;99947.49;1769947;80;20138;-62
2021/07/02 00:41:15;;;;;;;;;;;;;;;25.97;57.16;99936.76;1767020;80;20228;-62
2021/07/02 00:43:53;;;;;;;;;;;;;;;26.01;57.27;99936.84;1765068;80;20508;-61
2021/07/02 00:46:20;;;;;;;;;;;;;;;26.05;57.32;99929.33;1767134;80;20426;-62
2021/07/02 00:48:46;;;;;;;;;;;;;;;26.09;57.38;99925.42;1736759;81;20346;-61
2021/07/02 00:51:12;;;;;;;;;;;;;;;26.13;57.45;99924.87;1763132;78;20094;-62
2021/07/02 00:53:44;;;;;;;;;;;;;;;26.18;57.47;99921.73;1775700;78;20138;-61
2021/07/02 00:56:11;;;;;;;;;;;;;;;26.23;57.52;99926.22;1712640;82;22208;-62
2021/07/02 00:58:36;;;;;;;;;;;;;;;26.28;57.54;99928.69;1702242;82;20177;-61
2021/07/02 01:01:03;;;;;;;;;;;;;;;26.33;57.52;99924.19;1763541;80;20733;-62
2021/07/02 01:03:29;;;;;;;;;;;;;;;26.38;57.55;99924.45;1775792;80;20074;-62
2021/07/02 01:05:54;;;;;;;;;;;;;;;26.41;57.53;99926.47;1735162;81;20233;-62
2021/07/02 01:08:21;;;;;;;;;;;;;;;26.43;57.53;99931.09;1745768;80;20983;-62
2021/07/02 01:10:47;;;;;;;;;;;;;;;26.44;57.51;99930.70;1789189;79;21204;-62
2021/07/02 01:13:13;;;;;;;;;;;;;;;26.46;57.46;99930.33;1784582;78;20732;-62
2021/07/02 01:15:39;;;;;;;;;;;;;;;26.45;57.45;99928.12;1785995;79;20141;-62
2021/07/02 01:18:06;;;;;;;;;;;;;;;26.44;57.44;99926.52;1766248;80;20291;-62
2021/07/02 01:20:32;;;;;;;;;;;;;;;26.44;57.44;99927.91;1752684;80;20099;-62
2021/07/02 01:22:58;;;;;;;;;;;;;;;26.43;57.43;99936.09;1718655;82;20178;-61
2021/07/02 01:25:32;;;;;;;;;;;;;;;26.41;57.43;99927.86;1717911;82;20186;-61
2021/07/02 01:27:59;;;;;;;;;;;;;;;26.40;57.45;99930.44;1723778;82;20162;-62
2021/07/02 01:30:24;;;;;;;;;;;;;;;26.39;57.46;99930.25;1719995;82;20169;-62
2021/07/02 01:32:50;;;;;;;;;;;;;;;26.36;57.48;99927.02;1745653;80;21970;-61
2021/07/02 01:35:17;;;;;;;;;;;;;;;26.35;57.50;99930.20;1730739;82;20165;-62
2021/07/02 01:37:44;;;;;;;;;;;;;;;26.33;57.54;99922.78;1783025;79;20662;-62
2021/07/02 01:40:11;;;;;;;;;;;;;;;26.31;57.56;99920.36;1784610;79;21934;-62
2021/07/02 01:42:37;;;;;;;;;;;;;;;26.29;57.60;99923.33;1787552;79;20135;-62
2021/07/02 01:45:05;;;;;;;;;;;;;;;26.28;57.63;99925.31;1788982;79;21145;-62
2021/07/02 01:47:31;;;;;;;;;;;;;;;26.26;57.68;99926.30;1787114;79;20153;-61
2021/07/02 01:49:57;;;;;;;;;;;;;;;26.25;57.70;99933.05;1789604;79;20805;-61
2021/07/02 01:52:23;;;;;;;;;;;;;;;26.24;57.75;99930.63;1787633;79;20203;-61
2021/07/02 01:54:49;;;;;;;;;;;;;;;26.23;57.80;99934.00;1787599;78;20455;-62
2021/07/02 01:57:23;;;;;;;;;;;;;;;26.22;57.81;99930.21;1781076;79;21124;-61
2021/07/02 01:59:49;;;;;;;;;;;;;;;26.21;57.86;99934.17;1791488;79;20404;-61
2021/07/02 02:02:15;;;;;;;;;;;;;;;26.21;57.88;99934.17;1786401;79;20177;-61
2021/07/02 02:04:41;;;;;;;;;;;;;;;26.19;57.94;99930.33;1787410;79;20212;-62
2021/07/02 02:07:08;;;;;;;;;;;;;;;26.18;57.98;99920.97;1773163;79;20208;-61
2021/07/02 02:09:33;;;;;;;;;;;;;;;26.18;58.00;99924.53;1750418;80;21151;-62
2021/07/02 02:11:59;;;;;;;;;;;;;;;26.18;58.04;99929.33;1753499;80;21697;-62
2021/07/02 02:14:25;;;;;;;;;;;;;;;26.16;58.09;99925.52;1756636;80;20207;-61
2021/07/02 02:16:52;;;;;;;;;;;;;;;26.14;58.12;99920.89;1765542;79;20132;-63
2021/07/02 02:19:18;;;;;;;;;;;;;;;26.15;58.15;99921.11;1780921;80;20141;-61
2021/07/02 02:21:44;;;;;;;;;;;;;;;26.14;58.17;99916.70;1769051;80;21922;-63
2021/07/02 02:24:10;;;;;;;;;;;;;;;26.13;58.21;99922.09;1771248;80;20244;-62
2021/07/02 02:26:36;;;;;;;;;;;;;;;26.14;58.25;99927.86;1773709;80;20159;-61
2021/07/02 02:29:02;;;;;;;;;;;;;;;26.13;58.26;99929.64;1771951;80;20167;-62
2021/07/02 02:31:28;;;;;;;;;;;;;;;26.13;58.32;99937.42;1769980;80;20369;-62
2021/07/02 02:33:53;;;;;;;;;;;;;;;26.13;58.34;99943.59;1771470;81;21949;-61
2021/07/02 02:36:19;;;;;;;;;;;;;;;26.13;58.37;99947.77;1771197;80;20173;-62
2021/07/02 02:38:45;;;;;;;;;;;;;;;26.12;58.39;99958.11;1756606;81;20208;-61
2021/07/02 02:41:11;;;;;;;;;;;;;;;26.12;58.41;99962.30;1723003;82;20274;-61
2021/07/02 02:43:37;;;;;;;;;;;;;;;26.12;58.47;99962.87;1721011;82;20744;-62
2021/07/02 02:46:03;;;;;;;;;;;;;;;26.11;58.49;99968.23;1718786;82;21973;-61
2021/07/02 02:48:29;;;;;;;;;;;;;;;26.12;58.51;99965.08;1719330;82;20445;-62
2021/07/02 02:50:55;;;;;;;;;;;;;;;26.11;58.54;99967.64;1716767;82;20232;-61
2021/07/02 02:53:20;;;;;;;;;;;;;;;26.11;58.59;99976.02;1717860;82;20653;-61
2021/07/02 02:55:46;;;;;;;;;;;;;;;26.12;58.61;99985.98;1719827;82;20234;-61
2021/07/02 02:58:12;;;;;;;;;;;;;;;26.11;58.62;99985.77;1763658;79;21157;-61
2021/07/02 03:00:38;;;;;;;;;;;;;;;26.15;58.64;99988.61;1778891;79;20186;-61
2021/07/02 03:03:04;;;;;;;;;;;;;;;26.18;58.69;100000.42;1762208;81;20277;-61
2021/07/02 03:05:30;;;;;;;;;;;;;;;26.20;58.75;100000.28;1754470;81;22035;-61
2021/07/02 03:07:56;;;;;;;;;;;;;;;26.23;58.80;100004.30;1710198;82;20156;-61
2021/07/02 03:10:22;;;;;;;;;;;;;;;26.26;58.85;100000.19;1720431;82;20881;-62
2021/07/02 03:12:48;;;;;;;;;;;;;;;26.32;58.87;100009.02;1711844;81;20151;-62
2021/07/02 03:15:14;;;;;;;;;;;;;;;26.36;58.89;100002.91;1713460;82;20211;-62
2021/07/02 03:17:41;;;;;;;;;;;;;;;26.40;58.94;100010.73;1713248;81;20203;-61
2021/07/02 03:20:09;;;;;;;;;;;;;;;26.44;58.94;100003.22;1757908;80;20147;-60
2021/07/02 03:22:35;;;;;;;;;;;;;;;26.48;58.92;100002.67;1768959;80;21147;-62
2021/07/02 03:25:01;;;;;;;;;;;;;;;26.52;58.94;100013.91;1738739;81;20335;-61
2021/07/02 03:27:27;;;;;;;;;;;;;;;26.55;58.91;100008.96;1764102;80;20142;-61
2021/07/02 03:29:53;;;;;;;;;;;;;;;26.56;58.87;100002.20;1772664;80;20216;-61
2021/07/02 03:32:19;;;;;;;;;;;;;;;26.58;58.84;100005.41;1770856;80;20164;-61
2021/07/02 03:34:47;;;;;;;;;;;;;;;26.57;58.80;100005.19;1762930;80;21061;-61
2021/07/02 03:37:14;;;;;;;;;;;;;;;26.57;58.78;100007.39;1770247;79;20634;-61
2021/07/02 03:39:40;;;;;;;;;;;;;;;26.57;58.74;100010.19;1768612;79;20166;-61
2021/07/02 03:42:06;;;;;;;;;;;;;;;26.55;58.74;100000.59;1773453;80;20160;-61
2021/07/02 03:44:32;;;;;;;;;;;;;;;26.54;58.73;99996.19;1773771;80;20170;-61
2021/07/02 03:46:58;;;;;;;;;;;;;;;26.52;58.74;99989.58;1763888;80;20867;-61
2021/07/02 03:49:24;;;;;;;;;;;;;;;26.51;58.72;99989.98;1765469;80;20416;-62
2021/07/02 03:51:50;;;;;;;;;;;;;;;26.48;58.75;99990.12;1769648;80;20241;-61
2021/07/02 03:54:16;;;;;;;;;;;;;;;26.47;58.76;99984.94;1767169;80;20163;-61
2021/07/02 03:57:10;;;;;;;;;;;;;;;26.44;58.81;99979.51;1765798;80;20238;-62
2021/07/02 03:59:09;;;;;;;;;;;;;;;26.44;58.80;99975.94;1766876;80;21258;-61
2021/07/02 04:01:35;;;;;;;;;;;;;;;26.40;58.83;99967.50;1728707;81;20215;-62
2021/07/02 04:04:01;;;;;;;;;;;;;;;26.35;58.84;99967.23;1734385;81;20461;-61
2021/07/02 04:06:27;;;;;;;;;;;;;;;26.32;58.90;99961.61;1741698;81;20815;-61
2021/07/02 04:08:53;;;;;;;;;;;;;;;26.31;58.93;99972.55;1746325;81;20689;-62
2021/07/02 04:11:19;;;;;;;;;;;;;;;26.27;58.97;99968.90;1770240;79;21100;-61
2021/07/02 04:13:45;;;;;;;;;;;;;;;26.26;59.02;99970.10;1771474;81;20157;-61
2021/07/02 04:16:10;;;;;;;;;;;;;;;26.24;59.02;99970.47;1767514;80;20182;-61
2021/07/02 04:18:36;;;;;;;;;;;;;;;26.23;59.04;99970.83;1768003;80;20228;-62
2021/07/02 04:21:02;;;;;;;;;;;;;;;26.22;59.06;99972.84;1733021;81;20835;-61
2021/07/02 04:23:28;;;;;;;;;;;;;;;26.21;59.06;99969.02;1719812;82;21880;-61
2021/07/02 04:25:54;;;;;;;;;;;;;;;26.21;59.07;99963.45;1724328;82;20184;-61
2021/07/02 04:28:20;;;;;;;;;;;;;;;26.20;59.08;99969.61;1728995;82;20288;-61
2021/07/02 04:30:46;;;;;;;;;;;;;;;26.20;59.11;99970.20;1724545;82;20175;-62
2021/07/02 04:33:12;;;;;;;;;;;;;;;26.20;59.12;99971.59;1725199;82;20210;-62
2021/07/02 04:35:38;;;;;;;;;;;;;;;26.20;59.11;99977.17;1772865;80;22008;-62
2021/07/02 04:38:04;;;;;;;;;;;;;;;26.19;59.12;99972.73;1742539;81;20417;-61
2021/07/02 04:40:29;;;;;;;;;;;;;;;26.18;59.12;99976.11;1700439;83;20255;-61
2021/07/02 04:42:55;;;;;;;;;;;;;;;26.17;59.03;99976.50;1746381;81;20174;-61
2021/07/02 04:45:21;;;;;;;;;;;;;;;26.13;58.90;99969.48;1735913;81;20233;-61
2021/07/02 04:47:47;;;;;;;;;;;;;;;26.11;58.86;99966.84;1708210;83;21139;-62
2021/07/02 04:50:13;;;;;;;;;;;;;;;26.07;58.81;99969.58;1707188;83;20447;-61
2021/07/02 04:52:39;;;;;;;;;;;;;;;26.04;58.74;99971.73;1716308;82;20261;-60
2021/07/02 04:55:05;;;;;;;;;;;;;;;26.01;58.70;99973.88;1715856;82;20241;-62
2021/07/02 04:57:32;;;;;;;;;;;;;;;25.99;58.69;99970.65;1767571;81;20419;-62
2021/07/02 05:00:01;;;;;;;;;;;;;;;25.97;58.63;99979.95;1739295;81;21962;-62
2021/07/02 05:02:26;;;;;;;;;;;;;;;25.95;58.55;99979.55;1721866;82;20203;-61
2021/07/02 05:04:52;;;;;;;;;;;;;;;25.93;58.54;99973.52;1719088;82;20165;-62
2021/07/02 05:07:18;;;;;;;;;;;;;;;25.93;58.52;99983.28;1723539;82;20139;-61
2021/07/02 05:09:44;;;;;;;;;;;;;;;25.92;58.52;99974.73;1724693;82;20292;-62
2021/07/02 05:12:11;;;;;;;;;;;;;;;25.90;58.47;99971.49;1727421;81;21211;-61
2021/07/02 05:14:36;;;;;;;;;;;;;;;25.89;58.44;99979.63;1709703;82;20166;-61
2021/07/02 05:17:04;;;;;;;;;;;;;;;25.89;58.44;99980.44;1692807;84;20184;-61
2021/07/02 05:19:30;;;;;;;;;;;;;;;25.89;58.41;99983.81;1709299;82;20096;-61
2021/07/02 05:21:56;;;;;;;;;;;;;;;25.89;58.38;99985.20;1716992;82;20755;-61
2021/07/02 05:24:22;;;;;;;;;;;;;;;25.89;58.34;99989.38;1700081;83;21117;-60
2021/07/02 05:26:48;;;;;;;;;;;;;;;25.88;58.33;99996.16;1742232;82;20193;-60
2021/07/02 05:29:14;;;;;;;;;;;;;;;25.88;58.31;99998.36;1703302;83;20244;-61
2021/07/02 05:31:40;;;;;;;;;;;;;;;25.89;58.30;100005.52;1701576;83;20169;-61
2021/07/02 05:34:06;;;;;;;;;;;;;;;25.90;58.29;100011.31;1711059;82;20964;-61
2021/07/02 05:36:32;;;;;;;;;;;;;;;25.92;58.28;100016.53;1708725;82;22023;-61
2021/07/02 05:38:58;;;;;;;;;;;;;;;25.93;58.25;100022.30;1705545;82;20166;-62
2021/07/02 05:41:24;;;;;;;;;;;;;;;25.95;58.25;100027.51;1710433;83;20538;-61
2021/07/02 05:43:50;;;;;;;;;;;;;;;25.97;58.20;100030.74;1711540;82;20156;-62
2021/07/02 05:46:16;;;;;;;;;;;;;;;25.98;58.19;100023.97;1713010;82;20160;-61
2021/07/02 05:48:42;;;;;;;;;;;;;;;26.00;58.20;100031.38;1720795;82;21014;-60
2021/07/02 05:51:08;;;;;;;;;;;;;;;26.00;58.17;100028.59;1725509;82;20266;-62
2021/07/02 05:53:34;;;;;;;;;;;;;;;26.01;58.13;100049.14;1714649;82;20241;-61
2021/07/02 05:56:00;;;;;;;;;;;;;;;26.01;58.13;100056.11;1723659;82;20205;-61
2021/07/02 05:58:26;;;;;;;;;;;;;;;26.02;58.14;100056.30;1714453;81;20190;-61
2021/07/02 06:00:52;;;;;;;;;;;;;;;26.03;58.12;100050.95;1719995;82;21223;-61
2021/07/02 06:03:18;;;;;;;;;;;;;;;26.04;58.12;100047.58;1770656;80;20223;-61
2021/07/02 06:05:43;;;;;;;;;;;;;;;26.04;58.11;100048.39;1785719;79;20170;-62
2021/07/02 06:08:09;;;;;;;;;;;;;;;26.06;58.11;100057.75;1789331;79;20180;-61
2021/07/02 06:10:36;;;;;;;;;;;;;;;26.06;58.12;100069.70;1784809;79;20261;-61
2021/07/02 06:13:01;;;;;;;;;;;;;;;26.07;58.14;100074.11;1778965;79;21086;-61
2021/07/02 06:15:28;;;;;;;;;;;;;;;26.08;58.15;100079.11;1766846;81;20135;-61
2021/07/02 06:17:54;;;;;;;;;;;;;;;26.09;58.18;100077.94;1755499;81;20099;-61
2021/07/02 06:20:22;;;;;;;;;;;;;;;26.10;58.21;100081.72;1722318;82;20426;-62
2021/07/02 06:22:48;;;;;;;;;;;;;;;26.11;58.21;100099.27;1774886;79;20139;-61
2021/07/02 06:25:14;;;;;;;;;;;;;;;26.12;58.26;100109.24;1768213;80;21138;-62
2021/07/02 06:27:40;;;;;;;;;;;;;;;26.11;58.27;100118.19;1767811;79;20863;-61
2021/07/02 06:30:07;;;;;;;;;;;;;;;26.12;58.29;100124.58;1772949;79;20104;-61
2021/07/02 06:32:33;;;;;;;;;;;;;;;26.13;58.31;100127.00;1769893;81;20378;-62
2021/07/02 06:34:59;;;;;;;;;;;;;;;26.12;58.31;100115.63;1759580;80;20768;-61
2021/07/02 06:37:25;;;;;;;;;;;;;;;26.12;58.31;100110.05;1756577;81;23371;-61
2021/07/02 06:39:51;;;;;;;;;;;;;;;26.12;58.33;100100.30;1768802;81;20165;-61
2021/07/02 06:42:17;;;;;;;;;;;;;;;26.12;58.34;100100.30;1761479;81;20262;-62
2021/07/02 06:44:43;;;;;;;;;;;;;;;26.12;58.35;100103.08;1766518;81;20712;-62
2021/07/02 06:47:09;;;;;;;;;;;;;;;26.13;58.38;100114.45;1772039;79;20511;-61
2021/07/02 06:49:38;;;;;;;;;;;;;;;26.13;58.40;100108.08;1767644;80;21126;-60
2021/07/02 06:52:03;;;;;;;;;;;;;;;26.14;58.40;100113.26;1768833;79;20553;-62
2021/07/02 06:54:29;;;;;;;;;;;;;;;26.18;58.42;100115.52;1766065;80;20148;-61
2021/07/02 06:57:01;;;;;;;;;;;;;;;26.20;58.42;100114.60;1771355;79;20673;-61
2021/07/02 06:59:29;;;;;;;;;;;;;;;26.24;58.47;100104.89;1771559;80;20133;-61
2021/07/02 07:01:55;;;;;;;;;;;;;;;26.27;58.49;100100.77;1762181;81;22294;-61
2021/07/02 07:04:21;;;;;;;;;;;;;;;26.32;58.50;100103.25;1770444;80;20163;-61
2021/07/02 07:06:47;;;;;;;;;;;;;;;26.36;58.51;100103.30;1764981;79;20135;-61
2021/07/02 07:09:13;;;;;;;;;;;;;;;26.41;58.48;100103.58;1774071;79;20159;-61
2021/07/02 07:11:39;;;;;;;;;;;;;;;26.46;58.49;100098.50;1749291;81;20285;-61
2021/07/02 07:14:05;;;;;;;;;;;;;;;26.51;58.47;100098.77;1748172;81;21084;-61
2021/07/02 07:16:31;;;;;;;;;;;;;;;26.54;58.42;100096.03;1738053;81;20193;-61
2021/07/02 07:18:57;;;;;;;;;;;;;;;26.57;58.39;100100.05;1730386;81;20288;-61
2021/07/02 07:21:23;;;;;;;;;;;;;;;26.59;58.33;100098.51;1711624;82;20664;-61
2021/07/02 07:23:49;;;;;;;;;;;;;;;26.62;58.24;100103.92;1711423;81;20196;-61
2021/07/02 07:26:15;;;;;;;;;;;;;;;26.62;58.23;100112.28;1699237;82;21083;-61
2021/07/02 07:28:41;;;;;;;;;;;;;;;26.61;58.18;100110.08;1730440;82;20137;-61
2021/07/02 07:31:09;;;;;;;;;;;;;;;26.62;58.12;100122.05;1774067;79;20747;-61
2021/07/02 07:33:39;;;;;;;;;;;;;;;26.60;58.08;100125.82;1779167;80;21976;-61
2021/07/02 07:36:04;;;;;;;;;;;;;;;26.59;58.04;100125.59;1775247;79;20385;-61
2021/07/02 07:38:30;;;;;;;;;;;;;;;26.56;58.02;100122.17;1741789;80;21176;-61
2021/07/02 07:40:55;;;;;;;;;;;;;;;26.56;58.02;100111.02;1725679;82;20203;-61
2021/07/02 07:43:24;;;;;;;;;;;;;;;26.53;57.99;100116.73;1726240;82;20207;-62
2021/07/02 07:45:50;;;;;;;;;;;;;;;26.53;58.00;100115.92;1721169;82;20167;-61
2021/07/02 07:48:16;;;;;;;;;;;;;;;26.52;58.00;100113.72;1713923;82;20186;-61
2021/07/02 07:50:43;;;;;;;;;;;;;;;26.50;58.03;100107.73;1697179;83;23229;-62
2021/07/02 07:53:10;;;;;;;;;;;;;;;26.48;58.04;100104.49;1738031;81;20143;-61
2021/07/02 07:55:36;;;;;;;;;;;;;;;26.46;58.03;100111.05;1785003;79;20153;-62
2021/07/02 07:58:03;;;;;;;;;;;;;;;26.44;58.04;100111.22;1775171;79;20143;-61
2021/07/02 08:00:29;;;;;;;;;;;;;;;26.42;58.06;100106.59;1787974;79;20151;-61
2021/07/02 08:02:56;;;;;;;;;;;;;;;26.40;58.08;100113.92;1782464;79;21078;-61
2021/07/02 08:05:22;;;;;;;;;;;;;;;26.38;58.10;100105.73;1744779;81;21657;-61
2021/07/02 08:07:48;;;;;;;;;;;;;;;26.36;58.16;100098.53;1746427;81;20168;-61
2021/07/02 08:10:19;;;;;;;;;;;;;;;26.34;58.16;100103.70;1721083;82;20172;-60
2021/07/02 08:12:45;;;;;;;;;;;;;;;26.34;58.19;100102.89;1769980;79;20239;-61
2021/07/02 08:15:12;;;;;;;;;;;;;;;26.32;58.23;100097.67;1769646;81;22284;-61
2021/07/02 08:17:38;;;;;;;;;;;;;;;26.31;58.27;100100.83;1767027;79;20189;-62
2021/07/02 08:20:05;;;;;;;;;;;;;;;26.30;58.29;100101.44;1767901;79;20815;-63
2021/07/02 08:22:32;;;;;;;;;;;;;;;26.30;58.32;100102.03;1768997;79;20511;-62
2021/07/02 08:24:57;;;;;;;;;;;;;;;26.29;58.32;100108.19;1766212;79;20848;-59
2021/07/02 08:27:25;;;;;;;;;;;;;;;26.29;58.29;100098.42;1765315;81;21923;-61
2021/07/02 08:29:51;;;;;;;;;;;;;;;26.28;58.35;100104.37;1746791;80;20190;-61
2021/07/02 08:32:17;;;;;;;;;;;;;;;26.28;58.39;100103.78;1746476;81;20198;-60
2021/07/02 08:34:43;;;;;;;;;;;;;;;26.27;58.42;100100.77;1716191;82;20196;-61
2021/07/02 08:37:09;;;;;;;;;;;;;;;26.27;58.47;100107.74;1748845;81;20288;-60
2021/07/02 08:39:35;;;;;;;;;;;;;;;26.28;58.50;100111.34;1742894;81;23355;-61
2021/07/02 08:42:05;;;;;;;;;;;;;;;26.28;58.54;100107.97;1748779;81;20226;-64
2021/07/02 08:44:33;;;;;;;;;;;;;;;26.29;58.53;100109.58;1713164;82;20248;-59
2021/07/02 08:47:00;;;;;;;;;;;;;;;26.29;58.58;100110.98;1719160;82;20216;-60
2021/07/02 08:49:31;;;;;;;;;;;;;;;26.30;58.61;100110.39;1765859;80;20470;-61
2021/07/02 08:51:57;;;;;;;;;;;;;;;26.29;58.64;100109.58;1767016;81;21132;-62
2021/07/02 08:54:23;;;;;;;;;;;;;;;26.29;58.67;100115.75;1770730;80;20169;-59
2021/07/02 08:56:58;;;;;;;;;;;;;;;26.30;58.72;100113.98;1749387;80;21608;-73
2021/07/02 08:59:29;;;;;;;;;;;;;;;26.30;58.75;100115.97;1709477;82;20231;-62
2021/07/02 09:01:55;;;;;;;;;;;;;;;26.30;58.79;100111.78;1726273;82;20192;-61
2021/07/02 09:04:25;;;;;;;;;;;;;;;26.32;58.83;100110.80;1717961;82;21174;-62
2021/07/02 09:07:03;;;;;;;;;;;;;;;26.32;58.81;100108.02;1720602;82;20435;-65
2021/07/02 09:09:52;;;;;;;;;;;;;;;26.32;58.85;100110.22;1768618;79;20200;-62
2021/07/02 09:12:19;;;;;;;;;;;;;;;26.33;58.88;100111.03;1767066;79;20145;-64
2021/07/02 09:15:06;;;;;;;;;;;;;;;26.32;58.92;100103.84;1767100;79;20184;-59
2021/07/02 09:17:37;;;;;;;;;;;;;;;26.35;58.90;100096.92;1765854;80;21027;-60
2021/07/02 09:20:15;;;;;;;;;;;;;;;26.40;58.93;100097.78;1761614;79;20132;-60
2021/07/02 09:22:42;;;;;;;;;;;;;;;26.43;58.99;100088.69;1766558;80;20200;-69
2021/07/02 09:25:28;;;;;;;;;;;;;;;26.46;59.04;100087.34;1763057;80;20149;-70
2021/07/02 09:27:56;;;;;;;;;;;;;;;26.51;59.08;100082.03;1726286;82;20188;-71
2021/07/02 09:30:24;;;;;;;;;;;;;;;26.55;59.09;100083.70;1698942;83;20288;-58
2021/07/02 09:32:52;;;;;;;;;;;;;;;26.60;59.11;100084.78;1705820;82;20481;-61
2021/07/02 09:35:19;;;;;;;;;;;;;;;26.66;59.12;100083.84;1739484;81;20203;-63
2021/07/02 09:37:49;;;;;;;;;;;;;;;26.71;59.10;100081.55;1696117;82;20235;-61
2021/07/02 09:40:23;;;;;;;;;;;;;;;26.75;59.11;100074.61;1694657;82;20195;-61
2021/07/02 09:43:15;;;;;;;;;;;;;;;26.78;59.10;100073.85;1690435;82;21213;-60
2021/07/02 09:45:52;;;;;;;;;;;;;;;26.82;59.07;100071.33;1705163;83;20261;-61
2021/07/02 09:48:23;;;;;;;;;;;;;;;26.85;58.96;100072.61;1701223;82;20281;-61
2021/07/02 09:50:53;;;;;;;;;;;;;;;26.88;58.91;100069.64;1692385;83;20216;-61
2021/07/02 09:53:25;;;;;;;;;;;;;;;26.88;58.88;100071.84;1696031;83;20191;-62
2021/07/02 09:55:53;;;;;;;;;;;;;;;26.88;58.83;100067.66;1711043;82;21230;-62
2021/07/02 09:58:27;;;;;;;;;;;;;;;26.88;58.80;100078.02;1713184;82;20975;-61
2021/07/02 10:00:59;;;;;;;;;;;;;;;26.86;58.77;100077.02;1708357;82;20231;-62
2021/07/02 10:03:28;;;;;;;;;;;;;;;26.86;58.76;100077.02;1749761;79;21967;-61
2021/07/02 10:06:01;;;;;;;;;;;;;;;26.85;58.74;100078.19;1780706;79;20186;-62
2021/07/02 10:08:28;;;;;;;;;;;;;;;26.83;58.73;100076.32;1769171;79;21113;-62
2021/07/02 10:10:55;;;;;;;;;;;;;;;26.81;58.75;100082.89;1760732;79;20268;-62
2021/07/02 10:13:25;;;;;;;;;;;;;;;26.79;58.76;100078.26;1771912;79;20370;-61
2021/07/02 10:15:51;;;;;;;;;;;;;;;26.77;58.76;100081.45;1780217;79;20203;-60
2021/07/02 10:18:17;;;;;;;;;;;;;;;26.77;58.76;100065.29;1764913;79;20223;-61
2021/07/02 10:20:44;;;;;;;;;;;;;;;26.76;58.78;100062.28;1773037;79;21172;-60
2021/07/02 10:23:11;;;;;;;;;;;;;;;26.75;58.78;100064.84;1771538;79;20264;-61
2021/07/02 10:25:40;;;;;;;;;;;;;;;26.72;58.80;100059.44;1764322;79;20196;-62
2021/07/02 10:28:06;;;;;;;;;;;;;;;26.71;58.81;100057.83;1743693;81;20164;-63
2021/07/02 10:30:32;;;;;;;;;;;;;;;26.71;58.83;100054.23;1772972;79;20163;-62
2021/07/02 10:32:59;;;;;;;;;;;;;;;26.70;58.83;100056.80;1769165;79;21024;-61
2021/07/02 10:35:28;;;;;;;;;;;;;;;26.67;58.85;100050.00;1771227;79;21654;-62
2021/07/02 10:37:55;;;;;;;;;;;;;;;26.68;58.89;100050.80;1766802;78;20452;-61
2021/07/02 10:40:38;;;;;;;;;;;;;;;26.67;58.90;100058.37;1769384;79;20228;-62
2021/07/02 10:43:15;;;;;;;;;;;;;;;26.67;58.90;100049.19;1710111;82;20206;-63
2021/07/02 10:46:10;;;;;;;;;;;;;;;26.65;58.92;100042.58;1705140;83;21056;-62
2021/07/02 10:48:58;;;;;;;;;;;;;;;26.65;58.92;100046.77;1728881;81;20215;-64
2021/07/02 10:51:39;;;;;;;;;;;;;;;26.64;58.92;100045.18;1728479;82;20191;-62
2021/07/02 10:54:21;;;;;;;;;;;;;;;26.65;58.93;100045.98;1770984;79;20156;-62
2021/07/02 10:57:00;;;;;;;;;;;;;;;26.63;58.93;100040.77;1767219;80;20179;-62
2021/07/02 10:59:44;;;;;;;;;;;;;;;26.64;58.94;100040.99;1770388;80;21162;-64
2021/07/02 11:02:15;;;;;;;;;;;;;;;26.64;58.99;100044.37;1738220;81;20233;-63
2021/07/02 11:04:44;;;;;;;;;;;;;;;26.64;58.99;100041.58;1772348;80;20184;-62
2021/07/02 11:07:16;;;;;;;;;;;;;;;26.62;58.97;100036.37;1766492;80;20216;-62
2021/07/02 11:09:55;;;;;;;;;;;;;;;26.60;58.87;100040.73;1774327;79;20404;-62
2021/07/02 11:12:26;;;;;;;;;;;;;;;26.54;58.77;100026.29;1762887;79;21160;-70
2021/07/02 11:14:59;;;;;;;;;;;;;;;26.51;58.69;100036.81;1730459;81;20429;-70
2021/07/02 11:17:27;;;;;;;;;;;;;;;26.46;58.58;100025.97;1721251;82;20709;-73
2021/07/02 11:20:13;;;;;;;;;;;;;;;26.41;58.51;100036.05;1715972;82;20481;-67
2021/07/02 11:22:47;;;;;;;;;;;;;;;26.38;58.45;100034.02;1721732;81;20469;-65
2021/07/02 11:25:26;;;;;;;;;;;;;;;26.34;58.35;100025.61;1732667;81;21091;-65
2021/07/02 11:27:59;;;;;;;;;;;;;;;26.32;58.27;100028.54;1726145;81;20134;-65
2021/07/02 11:30:35;;;;;;;;;;;;;;;26.27;58.17;100020.48;1685707;83;20667;-66
2021/07/02 11:33:03;;;;;;;;;;;;;;;26.24;58.12;100020.66;1684653;83;20436;-66
2021/07/02 11:35:32;;;;;;;;;;;;;;;26.22;58.05;100023.63;1686282;83;20150;-65
2021/07/02 11:38:07;;;;;;;;;;;;;;;26.20;57.94;100030.95;1724197;81;21189;-65
2021/07/02 11:40:42;;;;;;;;;;;;;;;26.18;57.87;100024.91;1729233;82;20440;-65
2021/07/02 11:43:08;;;;;;;;;;;;;;;26.16;57.75;100039.82;1727092;81;20175;-65
2021/07/02 11:45:48;;;;;;;;;;;;;;;26.14;57.61;100036.59;1730809;82;21874;-66
2021/07/02 11:48:26;;;;;;;;;;;;;;;26.12;57.54;100057.67;1732909;82;20214;-65
2021/07/02 11:50:57;;;;;;;;;;;;;;;26.10;57.43;100067.78;1728635;81;21214;-65
2021/07/02 11:53:45;;;;;;;;;;;;;;;26.07;57.30;100064.94;1730654;81;20207;-66
2021/07/02 11:56:23;;;;;;;;;;;;;;;26.04;57.19;100060.13;1730325;82;20448;-66
2021/07/02 11:59:01;;;;;;;;;;;;;;;25.99;57.08;100054.27;1728087;81;20154;-67
2021/07/02 12:01:38;;;;;;;;;;;;;;;25.96;56.97;100059.20;1727118;81;20515;-66
2021/07/02 12:04:09;;;;;;;;;;;;;;;25.94;56.88;100060.14;1726949;81;21375;-66
2021/07/02 12:06:37;;;;;;;;;;;;;;;25.92;56.76;100065.30;1732936;81;20132;-66
2021/07/02 12:09:14;;;;;;;;;;;;;;;25.90;56.67;100069.03;1723508;81;20256;-66
2021/07/02 12:11:41;;;;;;;;;;;;;;;25.87;56.59;100058.05;1727480;81;20202;-66
2021/07/02 12:14:12;;;;;;;;;;;;;;;25.85;56.48;100063.17;1750101;80;20969;-66
2021/07/02 12:16:40;;;;;;;;;;;;;;;25.82;56.40;100065.33;1762372;80;21144;-66
2021/07/02 12:19:08;;;;;;;;;;;;;;;25.81;56.30;100065.09;1760068;79;20184;-66
2021/07/02 12:21:36;;;;;;;;;;;;;;;25.81;56.22;100061.50;1763429;80;20216;-66
2021/07/02 12:24:05;;;;;;;;;;;;;;;25.79;56.11;100067.47;1761174;79;20451;-66
2021/07/02 12:26:33;;;;;;;;;;;;;;;25.77;56.01;100064.81;1759667;79;20146;-66
2021/07/02 12:29:01;;;;;;;;;;;;;;;25.75;55.92;100060.22;1677433;82;21057;-65
2021/07/02 12:31:54;;;;;;;;;;;;;;;25.75;55.83;100061.61;1731920;81;20195;-65
2021/07/02 12:34:23;;;;;;;;;;;;;;;25.73;55.76;100061.16;1736386;81;20408;-66
2021/07/02 12:37:02;;;;;;;;;;;;;;;25.72;55.66;100055.36;1722141;81;20210;-65
2021/07/02 12:39:35;;;;;;;;;;;;;;;25.71;55.59;100056.56;1707841;81;20352;-66
2021/07/02 12:42:04;;;;;;;;;;;;;;;25.69;55.50;100051.34;1734437;81;21186;-63
2021/07/02 12:44:30;;;;;;;;;;;;;;;25.68;55.42;100048.34;1728237;81;20232;-65
2021/07/02 12:46:57;;;;;;;;;;;;;;;25.67;55.36;100037.58;1704644;82;20145;-65